Bloomer, Wisconsin
Current Conditions -  °F | °C
As of 11:55 AM on Saturday 25 Oct 2014 (Local Time) from KY23 Reporting Station
Clear Clear  
Wind Chill: 13°   Ceiling: Unl
Heat Index: 13°   Visibility: 10mi
Dew Point:   Wind: 12mph
Humidity: 42%   Direction: 290°WNW
Pressure: 29.98"   Gusts: 20mph
Location:  45.1°N, 91.49°W
Report Text: KY23 251655Z AUTO 29010G17KT 10SM CLR 13/01 A2998 RMK AO2 T01330006
Loading
Personal Weather Stations






























Interactive Weather Map
Tropical Storm Tracking
New forecast layout! Learn more

10-Day Weather Forecast

Advertisements
Track Severe Weather on mobile